Torreon, Mexico

8:56 PM EST on September 28, 2016 (GMT -0500)
Torreon International | | Change Station

Elev 3688 ft 25.53 °N, 103.45 °W | Updated 1 hour ago

Mostly Cloudy
Mostly Cloudy
79 °F
Feels Like 79 °F
N
0
Wind Variable Wind from North

Today
High -- | Low -- °F
--% Chance of Precip.
Yesterday
High -- | Low -- °F
Precip. -- in
Pressure 30.14 in
Visibility 10.0 miles
Clouds Scattered Clouds 2000 ft
Mostly Cloudy 20000 ft
Dew Point 63 °F
Humidity 57%
Rainfall 0.00 in
Snow Depth Not available.
7:45 AM 7:43 PM
Waning Crescent, 4% visible
METAR MMTC 290040Z 00000KT 10SM SCT020 BKN200 26/17 A3014 RMK 8/102 ISOL AC HZY
Pressure 30.14 in
Visibility 10.0 miles
Clouds Scattered Clouds 2000 ft
Mostly Cloudy 20000 ft
Dew Point 63 °F
Humidity 57%
Rainfall 0.00 in
Snow Depth Not available.
7:45 AM 7:43 PM
Waning Crescent, 4% visible
METAR MMTC 290040Z 00000KT 10SM SCT020 BKN200 26/17 A3014 RMK 8/102 ISOL AC HZY

10-Day Weather Forecast

No radar image for this location.
×

Almanac

Astronomy

Sep. 28, 2016 Rise Set
Actual Time
Civil Twilight
Nautical Twilight
Astronomical Twilight
Moon
Length of Visible Light
Length of Day
Tomorrow will be .
, % of the Moon is Illuminated

Today's Extremes

Country Highs Country Lows

Community

WunderPhotos

Upload Photos

1,942,396 photos uploaded!

WunderBlog® & News

Nearby

Air Quality

  Air Quality AQ Index Pollutant
Not available.

Snow Depth

Station Depth Elevation

Earthquake Activity

City Distance Mag. Time & Date
Minimum magnitude displayed is 2.5.

Coastal Water Temperatures

Place Temperature

Stations

Nearby Weather Stations

Station Location Temp. Windchill Dew Point Humidity Wind Precip. Elev Updated Type